Disclaimer

Please do not use the information listed here in-flight or in-navigation, as they are not provided to us by the airports but are provided by volunteers, so they might be outdated.

Search


Regions


Airport information page

Radio informations:
Tower (TWR) - 123.35 MHz
Automatic Terminal Information Service (ATIS) - 127.0 MHz

Airport informations:
Latitude: 11° 08' 12.62" N
Longitude: 075° 57' 19.08" E
Elevation: 342 feet - 104 meters
Operating hours: N/A
Operating agency: Civil government, landing fees and diplomatic clearance may be required
Timezone: UTC+5:30
Fuel: Jet A1, without icing nhibitor.

Runway information:
10/28 - 9383 x 150 feet< - >2860 x 46 meters

Recent METARs:
VOCL 180630Z 09005KT 5000 HZ SCT012 SCT018 31/24 Q1011 NOSIG
VOCL 180700Z 10003KT 5000 HZ SCT012 SCT018 31/24 Q1011 NOSIG
VOCL 180730Z 08003KT 5000 HZ SCT012 SCT018 31/24 Q1010 NOSIG

Airport on the map: